createdAt,value
2022-09-12T06:35:12.804Z,22.11
2022-09-12T06:37:42.381Z,22.15
2022-09-12T06:40:48.954Z,22.16
2022-09-12T06:43:18.486Z,22.20
2022-09-12T06:45:50.338Z,22.18
2022-09-12T06:48:18.954Z,22.21
2022-09-12T06:53:39.978Z,22.21
2022-09-12T06:56:09.860Z,22.21
2022-09-12T06:58:37.648Z,22.21
2022-09-12T07:01:17.789Z,22.22
2022-09-12T07:03:51.727Z,22.23
2022-09-12T07:06:20.950Z,22.27
2022-09-12T07:08:49.799Z,22.25
2022-09-12T07:11:19.780Z,22.26
2022-09-12T07:13:49.630Z,22.22
2022-09-12T07:16:19.604Z,22.21
2022-09-12T07:18:52.712Z,22.17
2022-09-12T07:21:23.901Z,22.16
2022-09-12T07:23:53.696Z,22.10
2022-09-12T07:26:21.362Z,22.14
2022-09-12T07:28:53.501Z,22.07
2022-09-12T07:31:24.767Z,22.00
2022-09-12T07:33:54.841Z,21.95
2022-09-12T07:36:26.078Z,21.92
2022-09-12T07:39:00.585Z,21.84
2022-09-12T07:41:31.103Z,21.81
2022-09-12T07:44:01.041Z,21.77
2022-09-12T07:46:31.957Z,21.72
2022-09-12T07:49:01.065Z,21.67
2022-09-12T07:51:30.815Z,21.61
2022-09-12T07:53:59.154Z,21.55
2022-09-12T07:56:33.652Z,21.48
2022-09-12T07:59:29.940Z,21.44
2022-09-12T08:02:17.088Z,21.36
2022-09-12T08:05:39.417Z,21.33
2022-09-12T08:08:12.097Z,21.32
2022-09-12T08:10:43.924Z,21.34
2022-09-12T08:48:11.928Z,23.08
2022-09-12T08:50:49.315Z,23.10
2022-09-12T08:53:21.020Z,23.18
2022-09-12T08:56:01.099Z,23.33
2022-09-12T08:58:29.955Z,23.45
2022-09-12T09:01:27.982Z,23.57
2022-09-12T09:04:26.919Z,23.65
2022-09-12T09:07:28.634Z,23.66
2022-09-12T09:17:44.003Z,23.60
2022-09-12T09:20:37.768Z,23.69
2022-09-12T09:23:18.361Z,23.69
2022-09-12T09:25:53.561Z,23.58
2022-09-12T09:28:22.299Z,23.54
2022-09-12T09:30:50.068Z,23.42
2022-09-12T09:33:24.486Z,23.40
2022-09-12T09:36:07.577Z,23.30
2022-09-12T09:38:56.632Z,23.24
2022-09-12T09:41:39.158Z,23.16
2022-09-12T09:46:34.412Z,23.07
2022-09-12T09:49:04.359Z,23.12
2022-09-12T09:51:41.019Z,23.14
2022-09-12T09:57:06.537Z,23.26
2022-09-12T09:59:35.555Z,23.23
2022-09-12T10:02:24.507Z,23.19
2022-09-12T10:04:56.795Z,23.15
2022-09-12T10:07:25.676Z,23.14
2022-09-12T10:10:29.072Z,23.13
2022-09-12T10:13:29.919Z,23.08
2022-09-12T10:15:59.640Z,23.03
2022-09-12T10:18:41.565Z,23.06
2022-09-12T10:21:30.252Z,23.11
2022-09-12T10:24:05.723Z,23.06
2022-09-12T10:26:58.051Z,23.10
2022-09-12T10:29:32.269Z,23.05
2022-09-12T10:32:06.789Z,23.06
2022-09-12T10:34:45.148Z,23.06
2022-09-12T10:37:20.315Z,23.04
2022-09-12T10:40:20.999Z,23.00
2022-09-12T10:42:53.434Z,22.91
2022-09-12T10:45:32.390Z,22.83
2022-09-12T10:48:05.482Z,22.78
2022-09-12T10:50:42.355Z,22.79
2022-09-12T10:53:31.017Z,22.74
2022-09-12T10:56:15.105Z,22.70
2022-09-12T10:59:00.994Z,22.60
2022-09-12T11:01:46.245Z,22.62
2022-09-12T11:04:44.913Z,22.58
2022-09-12T11:07:16.102Z,22.55
2022-09-12T11:10:05.157Z,22.53
2022-09-12T11:13:03.868Z,22.49
2022-09-12T11:15:50.277Z,22.50
2022-09-12T11:18:44.362Z,22.52
2022-09-12T11:21:25.823Z,22.46
2022-09-12T11:24:15.518Z,22.48
2022-09-12T11:27:01.794Z,22.51
2022-09-12T11:29:52.245Z,22.55
2022-09-12T11:32:41.290Z,22.59
2022-09-12T11:35:32.466Z,22.72
2022-09-12T11:38:12.283Z,22.79
2022-09-12T11:40:40.290Z,22.83
2022-09-12T11:43:17.164Z,22.87
2022-09-12T11:45:47.298Z,22.92
2022-09-12T11:48:40.436Z,22.92
2022-09-12T11:51:11.680Z,22.85
2022-09-12T11:53:40.259Z,22.77
2022-09-12T11:56:20.371Z,22.72
2022-09-12T11:58:54.039Z,22.65
2022-09-12T12:01:25.174Z,22.66
2022-09-12T12:03:55.943Z,22.59
2022-09-12T12:06:38.234Z,22.52
2022-09-12T12:09:06.144Z,22.43
2022-09-12T12:25:30.101Z,22.46
2022-09-12T12:28:51.652Z,22.48
2022-09-12T12:31:20.445Z,22.36
2022-09-12T12:33:47.909Z,22.37
2022-09-12T12:36:34.780Z,22.38
2022-09-12T12:39:35.482Z,22.46
2022-09-12T12:42:03.398Z,22.49
2022-09-12T12:44:46.269Z,22.52
2022-09-12T12:47:24.461Z,22.50
2022-09-12T12:50:12.483Z,22.46
2022-09-12T12:53:04.137Z,22.39
2022-09-12T12:55:39.815Z,22.32
2022-09-12T12:58:24.547Z,22.23
2022-09-12T13:01:16.313Z,22.10
2022-09-12T13:03:45.762Z,21.98
2022-09-12T13:06:36.321Z,21.99
2022-09-12T13:09:10.707Z,21.94
2022-09-12T13:11:39.414Z,21.92
2022-09-12T13:14:10.839Z,21.89
2022-09-12T13:16:41.810Z,21.86
2022-09-12T13:19:18.540Z,21.85
2022-09-12T13:22:06.865Z,21.84
2022-09-12T13:24:36.439Z,21.88
2022-09-12T13:27:04.883Z,21.91
2022-09-12T13:29:32.759Z,21.88
2022-09-12T13:32:03.562Z,21.88
2022-09-12T13:34:34.898Z,21.94
2022-09-12T13:37:51.283Z,22.09
2022-09-12T13:40:36.345Z,22.24
2022-09-12T13:43:27.776Z,22.29
2022-09-12T13:45:55.357Z,22.33
2022-09-12T13:48:24.620Z,22.43
2022-09-12T13:51:00.928Z,22.60
2022-09-12T13:53:45.219Z,22.83
2022-09-12T13:56:19.660Z,23.26
2022-09-12T13:59:03.142Z,23.65
2022-09-12T14:01:44.589Z,23.88
2022-09-12T14:04:38.097Z,23.93
2022-09-12T14:07:23.138Z,23.93
2022-09-12T14:09:56.779Z,23.86
2022-09-12T14:12:30.781Z,23.88
2022-09-12T14:14:58.682Z,23.95
2022-09-12T14:17:32.347Z,24.02
2022-09-12T14:20:04.508Z,24.15
2022-09-12T14:22:33.381Z,24.27
2022-09-12T14:25:00.876Z,24.34
2022-09-12T14:27:46.279Z,24.40
2022-09-12T14:30:24.279Z,24.46
2022-09-12T14:33:18.533Z,24.48
2022-09-12T14:35:54.061Z,24.62
2022-09-12T14:38:38.275Z,24.65
2022-09-12T14:41:12.954Z,24.70
2022-09-12T14:43:44.039Z,24.88
2022-09-12T14:46:47.033Z,25.19
2022-09-12T14:49:23.498Z,25.31
2022-09-12T14:51:56.718Z,25.52
2022-09-12T14:54:30.776Z,25.68
2022-09-12T14:57:07.089Z,25.73
2022-09-12T14:59:40.533Z,25.67
2022-09-12T15:02:27.513Z,25.51
2022-09-12T15:05:11.334Z,25.38
2022-09-12T15:07:51.634Z,25.23
2022-09-12T15:10:25.093Z,25.16
2022-09-12T15:13:10.476Z,24.98
2022-09-12T15:15:40.130Z,24.73
2022-09-12T15:18:07.731Z,24.53
2022-09-12T15:20:44.797Z,24.36
2022-09-12T15:23:32.252Z,24.25
2022-09-12T15:26:00.699Z,24.26
2022-09-12T15:28:28.358Z,24.25
2022-09-12T15:30:56.504Z,24.22
2022-09-12T15:33:25.257Z,24.13
2022-09-12T15:35:53.174Z,24.08
2022-09-12T15:38:26.319Z,24.12
2022-09-12T15:40:54.787Z,24.09
2022-09-12T15:43:23.363Z,24.03
2022-09-12T15:45:52.325Z,24.02
2022-09-12T15:48:21.552Z,24.04
2022-09-12T15:50:49.052Z,24.00
2022-09-12T15:53:17.028Z,24.09
2022-09-12T15:55:44.778Z,24.11
2022-09-12T15:58:12.429Z,24.05
2022-09-12T16:00:41.805Z,24.03
2022-09-12T16:03:22.549Z,24.01
2022-09-12T16:05:50.958Z,23.98
2022-09-12T16:08:19.765Z,23.99
2022-09-12T16:10:47.507Z,23.93
2022-09-12T16:13:15.121Z,23.90
2022-09-12T16:15:42.603Z,23.91
2022-09-12T16:18:10.234Z,23.92
2022-09-12T16:20:40.188Z,24.05
2022-09-12T16:23:13.674Z,24.10
2022-09-12T16:25:41.446Z,24.00
2022-09-12T16:28:12.262Z,23.92
2022-09-12T16:30:40.255Z,23.79
2022-09-12T16:33:08.285Z,23.80
2022-09-12T16:35:35.786Z,23.73
2022-09-12T16:38:03.478Z,23.69
2022-09-12T16:40:31.582Z,23.68
2022-09-12T16:42:59.519Z,23.62
2022-09-12T16:45:27.270Z,23.49
2022-09-12T16:47:55.385Z,23.54
2022-09-12T16:50:23.037Z,23.61
2022-09-12T16:52:50.682Z,23.70
2022-09-12T16:55:18.177Z,23.72
2022-09-12T16:57:46.713Z,23.73
2022-09-12T17:00:14.828Z,23.67
2022-09-12T17:02:42.378Z,23.60
2022-09-12T17:05:10.132Z,23.50
2022-09-12T17:07:37.998Z,23.43
2022-09-12T17:10:05.950Z,23.40
2022-09-12T17:12:33.862Z,23.37
2022-09-12T17:15:01.493Z,23.36
2022-09-12T17:17:28.994Z,23.36
2022-09-12T17:19:56.763Z,23.27
2022-09-12T17:22:24.306Z,23.29
2022-09-12T17:24:51.923Z,23.30
2022-09-12T17:27:19.367Z,23.27
2022-09-12T17:29:49.870Z,23.21
2022-09-12T17:32:17.799Z,23.17
2022-09-12T17:34:46.752Z,23.13
2022-09-12T17:37:15.150Z,23.11
2022-09-12T17:39:42.728Z,23.05
2022-09-12T17:42:10.388Z,23.05
2022-09-12T17:44:38.604Z,23.01
2022-09-12T17:47:06.464Z,23.00
2022-09-12T17:49:36.674Z,23.00
2022-09-12T17:52:04.233Z,22.99
2022-09-12T17:54:31.691Z,22.95
2022-09-12T17:57:00.108Z,22.95
2022-09-12T17:59:27.864Z,22.91
2022-09-12T18:02:16.543Z,22.88
2022-09-12T18:04:48.765Z,22.86
2022-09-12T18:07:18.674Z,22.83
2022-09-12T18:09:50.420Z,22.80
2022-09-12T18:12:19.087Z,22.74
2022-09-12T18:14:47.726Z,22.73
2022-09-12T18:17:15.425Z,22.74
2022-09-12T18:19:44.061Z,22.74
2022-09-12T18:22:12.417Z,22.69
2022-09-12T18:24:43.569Z,22.65
2022-09-12T18:42:59.473Z,22.57
2022-09-12T18:45:27.117Z,22.54
2022-09-12T18:47:54.596Z,22.49
2022-09-12T18:50:23.640Z,22.45
2022-09-12T18:52:57.826Z,22.40
2022-09-12T18:55:27.189Z,22.36
2022-09-12T18:57:56.318Z,22.25
2022-09-12T19:00:24.178Z,22.33
2022-09-12T19:02:51.861Z,22.31
2022-09-12T19:05:19.451Z,22.31
2022-09-12T19:23:24.280Z,22.29
2022-09-12T19:25:59.358Z,22.27
2022-09-12T19:28:27.114Z,22.24
2022-09-12T19:30:56.160Z,22.25
2022-09-12T19:33:24.355Z,22.26
2022-09-12T19:35:56.430Z,22.25
2022-09-12T19:38:25.646Z,22.20
2022-09-12T19:40:59.855Z,22.23
2022-09-12T19:43:27.473Z,22.20
2022-09-12T19:45:55.692Z,22.20
2022-09-12T19:48:25.261Z,22.24
2022-09-12T19:50:52.916Z,22.23
2022-09-12T19:53:22.834Z,22.20
2022-09-12T19:55:50.675Z,22.21
2022-09-12T19:58:21.476Z,22.16
2022-09-12T20:00:49.043Z,22.24
2022-09-12T20:03:17.878Z,22.23
2022-09-12T20:05:47.341Z,22.24
2022-09-12T20:08:15.050Z,22.24
2022-09-12T20:10:42.831Z,22.24
2022-09-12T20:13:12.106Z,22.24
2022-09-12T20:15:39.780Z,22.26
2022-09-12T20:18:07.802Z,22.26
2022-09-12T20:20:35.326Z,22.25
2022-09-12T20:23:03.288Z,22.25
2022-09-12T20:25:34.891Z,22.24
2022-09-12T20:28:06.528Z,22.24
2022-09-12T20:30:34.449Z,22.23
2022-09-12T20:33:07.488Z,22.20
2022-09-12T20:35:35.448Z,22.26
2022-09-12T20:38:20.180Z,22.23
2022-09-12T20:40:52.090Z,22.24
2022-09-12T20:43:19.689Z,22.27
2022-09-12T20:45:48.292Z,22.29
2022-09-12T20:48:16.368Z,22.31
2022-09-12T20:50:43.896Z,22.28
2022-09-12T20:53:11.657Z,22.28
2022-09-12T20:55:41.905Z,22.28
2022-09-12T20:58:09.397Z,22.25
2022-09-12T21:00:39.064Z,22.18
2022-09-12T21:03:06.786Z,22.23
2022-09-12T21:05:37.403Z,22.23
2022-09-12T21:08:07.083Z,22.22
2022-09-12T21:10:35.764Z,22.21
2022-09-12T21:13:04.383Z,22.22
2022-09-12T21:15:41.090Z,22.24
2022-09-12T21:18:18.664Z,22.23
2022-09-12T21:20:52.404Z,22.25
2022-09-12T21:23:20.143Z,22.23
2022-09-12T21:25:52.417Z,22.21
2022-09-12T21:28:21.383Z,22.18
2022-09-12T21:31:06.513Z,22.23
2022-09-12T21:33:45.713Z,22.23
2022-09-12T21:36:16.127Z,22.21
2022-09-12T21:42:32.455Z,22.16
2022-09-12T21:45:16.552Z,22.13
2022-09-12T21:48:02.690Z,22.07
2022-09-12T21:50:55.147Z,22.13
2022-09-12T21:53:45.516Z,22.10
2022-09-12T21:57:14.756Z,22.10
2022-09-12T21:59:52.177Z,22.05
2022-09-12T22:02:35.122Z,22.07
2022-09-12T22:05:24.311Z,22.07
2022-09-12T22:08:05.535Z,22.03
2022-09-12T22:10:35.332Z,22.00
2022-09-12T22:13:32.184Z,22.07
2022-09-12T22:16:03.826Z,22.04
2022-09-12T22:18:51.824Z,22.02
2022-09-12T22:22:15.286Z,22.00
2022-09-12T22:25:38.646Z,21.98
2022-09-12T22:28:07.719Z,21.95
2022-09-12T22:30:40.216Z,22.00
2022-09-12T22:33:10.764Z,22.00
2022-09-12T22:35:38.516Z,21.97
2022-09-12T22:38:07.590Z,21.98
2022-09-12T22:40:35.947Z,21.97
2022-09-12T22:43:09.532Z,22.01
2022-09-12T22:45:44.260Z,21.99
2022-09-12T22:49:09.459Z,21.99
2022-09-12T22:55:19.697Z,21.91
2022-09-12T22:58:09.489Z,21.88
2022-09-12T23:00:51.300Z,21.82
2022-09-12T23:03:42.555Z,21.81
2022-09-12T23:06:55.127Z,21.80
2022-09-12T23:13:03.350Z,21.58
2022-09-12T23:15:33.444Z,21.44
2022-09-12T23:18:01.216Z,21.45
2022-09-12T23:20:30.822Z,21.44
2022-09-12T23:23:54.531Z,21.44
2022-09-12T23:26:24.015Z,21.43
2022-09-12T23:28:56.672Z,21.44
2022-09-12T23:31:32.437Z,21.36
2022-09-12T23:37:40.288Z,21.48
2022-09-12T23:43:48.794Z,21.49
2022-09-12T23:46:17.028Z,21.51
2022-09-12T23:49:42.142Z,21.54
2022-09-12T23:52:39.048Z,21.56
2022-09-12T23:55:08.152Z,21.54
2022-09-12T23:57:43.599Z,21.56
